Time;durP1;ratioP1;P1;durP2;ratioP2;P2;SDS_P1;SDS_P2;PMS_P1;PMS_P2;Temp;Humidity;BMP_temperature;BMP_pressure;BME280_temperature;BME280_humidity;BME280_pressure;Samples;Min_cycle;Max_cycle;Signal;HPM_P1;HPM_P2
2021/01/18 00:01:34;;;;;;;15.15;10.20;;;;;;;0.31;96.67;99142.47;5036359;28;45447;-76
2021/01/18 00:03:59;;;;;;;17.40;11.23;;;;;;;0.33;96.70;99142.38;5020292;28;45369;-77
2021/01/18 00:06:25;;;;;;;21.00;12.38;;;;;;;0.33;96.29;99151.09;5030478;28;45294;-76
2021/01/18 00:08:51;;;;;;;17.23;10.95;;;;;;;0.37;96.23;99157.88;5036674;28;45309;-76
2021/01/18 00:11:18;;;;;;;17.33;10.82;;;;;;;0.35;96.53;99162.34;5036507;28;45240;-77
2021/01/18 00:13:45;;;;;;;16.95;11.05;;;;;;;0.38;96.28;99159.59;5037226;28;45282;-77
2021/01/18 00:16:13;;;;;;;19.05;10.93;;;;;;;0.42;96.02;99157.66;5036535;28;45424;-77
2021/01/18 00:18:38;;;;;;;18.95;10.98;;;;;;;0.42;96.48;99153.28;5036411;28;45361;-77
2021/01/18 00:21:04;;;;;;;15.48;9.70;;;;;;;0.46;95.88;99166.25;5036088;28;45382;-76
2021/01/18 00:23:29;;;;;;;15.00;9.48;;;;;;;0.39;96.21;99160.41;5037022;28;45290;-77
2021/01/18 00:25:54;;;;;;;18.60;11.98;;;;;;;0.36;95.94;99169.28;5037062;28;45435;-77
2021/01/18 00:28:20;;;;;;;20.30;11.95;;;;;;;0.31;95.84;99162.53;5036599;28;45258;-77
2021/01/18 00:30:45;;;;;;;19.25;11.75;;;;;;;0.26;95.57;99166.22;5036432;28;45578;-76
2021/01/18 00:33:11;;;;;;;18.80;12.07;;;;;;;0.21;96.07;99170.81;5036797;28;45398;-76
2021/01/18 00:35:36;;;;;;;17.23;11.05;;;;;;;0.21;96.22;99172.59;5036331;28;45467;-77
2021/01/18 00:38:02;;;;;;;20.17;12.52;;;;;;;0.22;96.01;99172.50;5036832;28;46092;-77
2021/01/18 00:40:27;;;;;;;19.77;13.07;;;;;;;0.20;96.33;99174.34;5040259;28;45315;-77
2021/01/18 00:42:54;;;;;;;19.55;12.43;;;;;;;0.22;95.89;99185.56;5039480;28;45484;-77
2021/01/18 00:45:21;;;;;;;20.15;12.68;;;;;;;0.08;96.03;99183.59;5040041;28;45226;-77
2021/01/18 00:47:56;;;;;;;22.20;12.80;;;;;;;0.13;96.68;99178.13;5039494;28;46152;-77
2021/01/18 00:50:27;;;;;;;22.50;13.20;;;;;;;0.14;96.23;99174.59;5039174;28;45475;-77
2021/01/18 00:52:54;;;;;;;20.58;12.05;;;;;;;-0.01;97.06;99186.56;5038341;28;45463;-77
2021/01/18 00:55:21;;;;;;;22.25;13.18;;;;;;;0.03;97.08;99182.94;5029097;28;45701;-77
2021/01/18 00:57:47;;;;;;;20.85;12.65;;;;;;;-0.04;96.88;99198.03;5032563;28;46387;-77
2021/01/18 01:00:15;;;;;;;21.00;12.88;;;;;;;0.02;96.70;99193.44;5039305;28;45490;-77
2021/01/18 01:02:43;;;;;;;21.63;12.63;;;;;;;-0.08;97.37;99192.97;5038212;28;45553;-77
2021/01/18 01:05:11;;;;;;;21.05;13.35;;;;;;;-0.04;96.81;99198.03;5028654;28;45547;-77
2021/01/18 01:07:40;;;;;;;18.30;11.27;;;;;;;0.01;96.23;99196.97;5039432;28;45358;-77
2021/01/18 01:10:07;;;;;;;20.35;12.40;;;;;;;-0.11;96.27;99201.81;5039664;28;45353;-77
2021/01/18 01:12:32;;;;;;;20.42;12.40;;;;;;;-0.02;96.35;99190.09;5039414;28;45452;-77
2021/01/18 01:14:57;;;;;;;19.17;11.18;;;;;;;-0.04;95.66;99199.78;5039022;28;45235;-77
2021/01/18 01:17:23;;;;;;;15.05;10.20;;;;;;;-0.10;95.87;99190.44;5039839;28;45164;-77
2021/01/18 01:19:49;;;;;;;15.02;9.68;;;;;;;-0.09;94.70;99181.69;5039206;28;45243;-77
2021/01/18 01:22:14;;;;;;;19.48;10.93;;;;;;;-0.36;95.70;99179.34;5039276;28;45222;-77
2021/01/18 01:24:39;;;;;;;20.35;12.10;;;;;;;-0.36;97.58;99173.25;5039377;28;45339;-77
2021/01/18 01:27:05;;;;;;;18.63;11.55;;;;;;;-0.21;97.32;99166.53;5038188;28;47485;-77
2021/01/18 01:29:30;;;;;;;18.33;11.43;;;;;;;-0.17;96.70;99162.88;5039302;28;45311;-77
2021/01/18 01:31:56;;;;;;;18.35;11.68;;;;;;;-0.14;96.54;99170.56;5039593;28;45746;-77
2021/01/18 01:34:21;;;;;;;17.38;11.20;;;;;;;-0.12;96.64;99153.06;5037949;28;45334;-77
2021/01/18 01:36:47;;;;;;;21.50;12.50;;;;;;;-0.15;97.03;99155.81;5039192;28;45329;-77
2021/01/18 01:39:12;;;;;;;20.83;12.30;;;;;;;-0.08;96.81;99152.00;5039136;28;45349;-77
2021/01/18 01:41:37;;;;;;;20.52;11.60;;;;;;;-0.06;96.67;99144.06;5039285;28;45333;-76
2021/01/18 01:44:03;;;;;;;21.63;11.90;;;;;;;-0.08;96.94;99141.53;5039047;28;45271;-76
2021/01/18 01:46:29;;;;;;;20.00;12.45;;;;;;;-0.07;97.03;99143.25;5038800;28;45322;-77
2021/01/18 01:48:55;;;;;;;20.25;12.75;;;;;;;-0.07;97.27;99138.00;5038624;28;45269;-77
2021/01/18 01:51:22;;;;;;;19.95;12.25;;;;;;;-0.04;97.58;99147.47;5037683;28;45398;-77
2021/01/18 01:53:47;;;;;;;22.63;12.52;;;;;;;0.01;97.20;99158.63;5038918;28;45260;-77
2021/01/18 01:56:13;;;;;;;20.20;12.13;;;;;;;-0.03;97.00;99152.66;5021215;28;46128;-77
2021/01/18 01:58:39;;;;;;;18.70;10.98;;;;;;;0.01;97.15;99156.00;5034874;28;45292;-77
2021/01/18 02:01:06;;;;;;;19.30;11.25;;;;;;;0.03;97.41;99174.22;5037594;28;45465;-76
2021/01/18 02:03:41;;;;;;;20.42;11.40;;;;;;;0.04;96.74;99173.31;5038471;28;45320;-77
2021/01/18 02:06:08;;;;;;;19.00;10.95;;;;;;;-0.03;96.91;99181.44;5038500;28;46162;-77
2021/01/18 02:08:34;;;;;;;15.52;10.50;;;;;;;-0.01;96.94;99174.34;5038710;28;45523;-77
2021/01/18 02:11:00;;;;;;;16.88;10.40;;;;;;;-0.01;96.76;99174.34;5038637;28;45408;-77
2021/01/18 02:13:34;;;;;;;17.25;11.07;;;;;;;0.00;96.44;99183.06;5038385;28;45488;-76
2021/01/18 02:16:21;;;;;;;18.00;10.50;;;;;;;-0.02;96.41;99190.97;5037422;28;47680;-76
2021/01/18 02:19:01;;;;;;;16.58;9.90;;;;;;;-0.03;96.14;99197.13;5026447;28;45531;-76
2021/01/18 02:21:49;;;;;;;14.75;9.70;;;;;;;-0.15;96.29;99192.41;5038120;28;45335;-77
2021/01/18 02:24:52;;;;;;;16.40;9.70;;;;;;;-0.12;96.14;99200.13;5038271;28;45339;-76
2021/01/18 02:27:57;;;;;;;17.83;11.02;;;;;;;-0.32;96.56;99206.19;5038393;28;46110;-77
2021/01/18 02:30:44;;;;;;;17.48;10.55;;;;;;;-0.23;96.96;99199.72;5029941;28;45341;-77
2021/01/18 02:33:15;;;;;;;17.23;10.95;;;;;;;-0.31;96.86;99200.91;5026888;28;45575;-77
2021/01/18 02:36:02;;;;;;;17.77;11.32;;;;;;;-0.35;96.92;99201.09;5038106;28;45400;-76
2021/01/18 02:38:46;;;;;;;19.73;11.77;;;;;;;-0.31;96.34;99198.28;5038288;28;45337;-77
2021/01/18 02:41:36;;;;;;;18.98;12.25;;;;;;;-0.36;96.68;99202.00;5025913;28;45270;-77
2021/01/18 02:44:06;;;;;;;16.83;9.60;;;;;;;-0.45;96.67;99206.69;5038357;28;45273;-77
2021/01/18 02:46:35;;;;;;;16.95;10.57;;;;;;;-0.39;96.32;99205.59;5038397;28;45548;-77
2021/01/18 02:49:02;;;;;;;22.08;10.60;;;;;;;-0.54;97.07;99207.06;5037930;28;46314;-77
2021/01/18 02:51:28;;;;;;;17.45;10.93;;;;;;;-0.47;96.47;99205.03;5037626;28;45306;-76
2021/01/18 02:54:01;;;;;;;17.77;11.00;;;;;;;-0.40;96.40;99201.28;5038034;28;45413;-77
2021/01/18 02:56:29;;;;;;;15.95;9.90;;;;;;;-0.53;95.53;99197.44;5020745;28;45249;-77
2021/01/18 02:58:57;;;;;;;19.38;11.05;;;;;;;-0.46;95.92;99196.28;5036232;28;46178;-77
2021/01/18 03:01:53;;;;;;;20.50;10.82;;;;;;;-0.52;96.91;99201.75;5037577;28;45408;-77
2021/01/18 03:04:40;;;;;;;16.25;9.35;;;;;;;-0.48;95.64;99198.97;5019875;28;45330;-76
2021/01/18 03:07:15;;;;;;;18.73;10.65;;;;;;;-0.46;95.99;99201.50;5036998;28;45429;-77
2021/01/18 03:09:48;;;;;;;19.55;11.32;;;;;;;-0.47;95.91;99191.97;5037850;28;45960;-76
2021/01/18 03:12:18;;;;;;;15.77;9.27;;;;;;;-0.46;95.30;99197.16;5037734;28;45258;-76
2021/01/18 03:14:46;;;;;;;16.27;9.25;;;;;;;-0.46;95.48;99194.53;5036630;28;45658;-77
2021/01/18 03:17:20;;;;;;;18.90;10.05;;;;;;;-0.49;95.87;99194.66;5038129;28;45380;-77
2021/01/18 03:19:46;;;;;;;18.27;10.20;;;;;;;-0.44;95.71;99199.72;5037390;28;45294;-76
2021/01/18 03:22:22;;;;;;;16.30;10.00;;;;;;;-0.59;96.28;99196.78;5037382;28;45494;-76
2021/01/18 03:24:47;;;;;;;17.80;11.02;;;;;;;-0.51;95.93;99187.78;5037859;28;45289;-76
2021/01/18 03:27:14;;;;;;;16.65;10.15;;;;;;;-0.49;95.96;99189.44;5037775;28;45443;-77
2021/01/18 03:29:39;;;;;;;17.40;9.63;;;;;;;-0.44;95.61;99191.88;5037392;28;45301;-77
2021/01/18 03:32:06;;;;;;;19.08;10.82;;;;;;;-0.42;95.00;99194.41;5037442;28;45252;-77
2021/01/18 03:34:32;;;;;;;15.02;8.88;;;;;;;-0.49;95.02;99199.03;5037534;28;45413;-76
2021/01/18 03:36:58;;;;;;;16.10;9.13;;;;;;;-0.48;95.67;99198.97;5037452;28;45173;-77
2021/01/18 03:39:23;;;;;;;14.63;8.95;;;;;;;-0.47;95.58;99202.44;5037331;28;45356;-76
2021/01/18 03:41:49;;;;;;;15.40;9.02;;;;;;;-0.49;95.37;99199.03;5037277;28;45261;-76
2021/01/18 03:44:14;;;;;;;12.70;7.32;;;;;;;-0.45;95.24;99196.25;5037419;28;45286;-76
2021/01/18 03:46:44;;;;;;;12.25;7.45;;;;;;;-0.45;95.11;99196.25;5037495;28;45512;-76
2021/01/18 03:49:10;;;;;;;12.10;6.72;;;;;;;-0.41;94.64;99201.34;5037191;28;45971;-76
2021/01/18 03:51:35;;;;;;;12.77;6.80;;;;;;;-0.37;94.34;99205.53;5036847;28;45319;-76
2021/01/18 03:54:00;;;;;;;10.18;5.57;;;;;;;-0.42;94.56;99210.09;5036343;28;45406;-76
2021/01/18 03:56:26;;;;;;;12.73;6.40;;;;;;;-0.41;95.04;99209.19;5019597;28;45525;-76
2021/01/18 03:58:51;;;;;;;10.10;5.60;;;;;;;-0.58;95.11;99213.34;5034770;28;46130;-77
2021/01/18 04:01:17;;;;;;;10.90;6.65;;;;;;;-0.57;94.86;99209.81;5037071;28;45227;-76
2021/01/18 04:03:42;;;;;;;9.77;6.18;;;;;;;-0.46;94.42;99209.34;5036794;28;45239;-76
2021/01/18 04:06:08;;;;;;;11.10;6.28;;;;;;;-0.56;94.50;99213.25;5036957;28;45429;-76
2021/01/18 04:08:33;;;;;;;11.63;6.57;;;;;;;-0.77;95.63;99210.59;5035692;28;47883;-77
2021/01/18 04:10:59;;;;;;;10.40;6.25;;;;;;;-0.68;95.17;99214.63;5036858;28;45483;-77
2021/01/18 04:13:24;;;;;;;15.93;8.20;;;;;;;-0.67;94.71;99217.16;5037582;28;45207;-76
2021/01/18 04:15:49;;;;;;;16.23;9.50;;;;;;;-0.65;95.37;99212.72;5040811;28;45224;-76
2021/01/18 04:18:15;;;;;;;17.52;9.55;;;;;;;-0.59;95.62;99214.25;5040514;28;46169;-76
2021/01/18 04:20:40;;;;;;;17.95;9.65;;;;;;;-0.61;94.86;99216.91;5040069;28;45440;-76
2021/01/18 04:23:05;;;;;;;14.73;7.72;;;;;;;-0.59;94.39;99220.31;5040569;28;45260;-76
2021/01/18 04:25:32;;;;;;;12.75;7.03;;;;;;;-0.59;94.68;99215.09;5040691;28;45209;-76
2021/01/18 04:27:59;;;;;;;15.35;8.45;;;;;;;-0.54;94.77;99216.66;5040228;28;45392;-76
2021/01/18 04:30:27;;;;;;;13.65;8.07;;;;;;;-0.54;94.28;99216.66;5040011;28;45319;-76
2021/01/18 04:33:04;;;;;;;10.00;6.68;;;;;;;-0.58;94.20;99215.94;5040092;28;45368;-76
2021/01/18 04:35:32;;;;;;;12.27;7.05;;;;;;;-0.53;93.98;99219.22;5040178;28;45202;-76
2021/01/18 04:37:58;;;;;;;11.25;6.45;;;;;;;-0.59;93.45;99216.84;5040394;28;45346;-76
2021/01/18 04:40:27;;;;;;;11.48;6.60;;;;;;;-0.56;93.62;99218.47;5039914;28;45410;-77
2021/01/18 04:42:54;;;;;;;10.20;6.22;;;;;;;-0.56;93.33;99218.47;5040440;28;45346;-77
2021/01/18 04:45:22;;;;;;;11.30;6.30;;;;;;;-0.55;93.39;99213.22;5040224;28;45273;-76
2021/01/18 04:47:51;;;;;;;10.52;6.30;;;;;;;-0.63;93.35;99213.50;5040136;28;45483;-77
2021/01/18 04:50:18;;;;;;;10.07;6.22;;;;;;;-0.57;93.66;99214.16;5039442;28;45286;-77
2021/01/18 04:52:59;;;;;;;9.63;5.72;;;;;;;-0.65;92.45;99210.09;5040290;28;45241;-77
2021/01/18 04:55:44;;;;;;;12.32;6.47;;;;;;;-0.61;93.45;99213.47;5029281;28;45336;-77
2021/01/18 04:58:14;;;;;;;13.50;7.93;;;;;;;-0.70;93.23;99201.59;5032053;28;46020;-77
2021/01/18 05:00:47;;;;;;;12.05;6.97;;;;;;;-0.65;93.37;99202.25;5038276;28;45272;-76
2021/01/18 05:03:18;;;;;;;15.25;8.20;;;;;;;-0.69;94.61;99213.75;5039674;28;45217;-77
2021/01/18 05:05:52;;;;;;;13.63;8.07;;;;;;;-0.61;94.59;99208.22;5039535;28;45306;-77
2021/01/18 05:08:45;;;;;;;16.50;8.55;;;;;;;-0.60;94.67;99216.00;5039756;28;45545;-76
2021/01/18 05:11:14;;;;;;;18.35;9.93;;;;;;;-0.66;94.92;99208.41;5039583;28;45190;-77
2021/01/18 05:13:40;;;;;;;21.17;10.88;;;;;;;-0.67;95.33;99211.09;5027029;28;45419;-76
2021/01/18 05:16:07;;;;;;;19.38;11.18;;;;;;;-0.67;95.40;99211.94;5039824;28;45474;-77
2021/01/18 05:18:35;;;;;;;22.00;11.00;;;;;;;-0.68;95.40;99209.41;5039695;28;45991;-77
2021/01/18 05:21:06;;;;;;;16.58;9.27;;;;;;;-0.70;94.63;99204.22;5039206;28;45675;-76
2021/01/18 05:23:38;;;;;;;17.77;9.38;;;;;;;-0.70;94.52;99213.84;5039806;28;45298;-77
2021/01/18 05:26:20;;;;;;;17.13;8.65;;;;;;;-0.74;94.02;99220.94;5039500;28;45445;-76
2021/01/18 05:28:50;;;;;;;15.40;8.15;;;;;;;-0.72;93.75;99211.25;5039411;28;45241;-77
2021/01/18 05:31:32;;;;;;;15.73;9.43;;;;;;;-0.70;93.88;99213.84;5038781;28;45414;-77
2021/01/18 05:34:10;;;;;;;13.82;7.57;;;;;;;-0.72;93.79;99219.09;5038163;28;45271;-77
2021/01/18 05:36:44;;;;;;;13.00;6.55;;;;;;;-0.80;92.76;99216.81;5039317;28;45476;-77
2021/01/18 05:39:19;;;;;;;10.10;6.00;;;;;;;-0.82;92.41;99221.25;5039076;28;45407;-77
2021/01/18 05:41:47;;;;;;;11.75;5.72;;;;;;;-0.80;92.68;99222.03;5039167;28;45437;-77
2021/01/18 05:44:13;;;;;;;11.10;5.35;;;;;;;-0.86;92.52;99222.28;5039166;28;45358;-77
2021/01/18 05:46:41;;;;;;;9.98;5.30;;;;;;;-0.85;92.09;99233.56;5039334;28;45596;-77
2021/01/18 05:49:18;;;;;;;9.73;5.28;;;;;;;-0.85;91.92;99230.94;5039037;28;45483;-77
2021/01/18 05:52:02;;;;;;;9.27;5.03;;;;;;;-0.99;92.06;99234.94;5038438;28;45396;-77
2021/01/18 05:54:27;;;;;;;9.63;5.10;;;;;;;-0.96;92.11;99236.56;5039020;28;45495;-77
2021/01/18 05:56:54;;;;;;;9.63;5.85;;;;;;;-0.98;91.56;99243.63;5030371;28;46445;-76
2021/01/18 05:59:21;;;;;;;10.48;5.63;;;;;;;-0.89;92.31;99257.19;5022840;28;45512;-79
2021/01/18 06:01:48;;;;;;;10.38;5.80;;;;;;;-0.86;92.02;99243.19;5038450;28;45253;-87
2021/01/18 06:04:22;;;;;;;12.50;7.13;;;;;;;-0.90;91.41;99247.66;5032440;28;45664;-78
2021/01/18 06:07:01;;;;;;;15.75;8.77;;;;;;;-0.97;92.43;99247.94;5032743;28;45350;-77
2021/01/18 06:09:47;;;;;;;15.85;7.88;;;;;;;-1.03;92.02;99246.41;5036480;28;48261;-76
2021/01/18 06:12:23;;;;;;;13.95;8.70;;;;;;;-1.07;92.28;99250.06;5037549;28;45501;-76
2021/01/18 06:15:10;;;;;;;14.48;7.70;;;;;;;-1.06;92.78;99262.22;5037941;28;45395;-83
2021/01/18 06:17:38;;;;;;;14.25;8.10;;;;;;;-1.07;93.20;99258.72;5037720;28;45611;-76
2021/01/18 06:20:05;;;;;;;12.18;7.22;;;;;;;-1.10;92.32;99261.47;5037633;28;45360;-76
2021/01/18 06:22:31;;;;;;;11.95;6.97;;;;;;;-1.06;92.63;99265.66;5032910;28;45210;-76
2021/01/18 06:25:09;;;;;;;11.68;6.13;;;;;;;-1.10;91.57;99269.28;5036546;28;45498;-77
2021/01/18 06:27:35;;;;;;;10.25;6.25;;;;;;;-1.10;91.93;99273.69;5032278;28;45380;-75
2021/01/18 06:30:00;;;;;;;11.35;6.68;;;;;;;-1.16;91.45;99269.53;5037392;28;45950;-76
2021/01/18 06:32:30;;;;;;;11.80;5.93;;;;;;;-1.19;91.73;99270.50;5035956;28;45525;-75
2021/01/18 06:35:01;;;;;;;10.75;5.90;;;;;;;-1.21;90.97;99279.28;5035863;28;45462;-76
2021/01/18 06:37:31;;;;;;;10.07;5.78;;;;;;;-1.28;90.78;99277.81;5036407;28;45618;-76
2021/01/18 06:40:02;;;;;;;7.18;4.72;;;;;;;-1.35;91.09;99287.59;5035667;28;46057;-75
2021/01/18 06:42:28;;;;;;;9.93;4.65;;;;;;;-1.33;90.90;99286.66;5035231;28;45444;-75
2021/01/18 06:44:54;;;;;;;6.97;4.28;;;;;;;-1.31;90.30;99291.84;5037568;28;45287;-76
2021/01/18 06:47:33;;;;;;;7.25;3.88;;;;;;;-1.35;89.15;99285.84;5036970;28;45478;-75
2021/01/18 06:50:04;;;;;;;5.90;3.72;;;;;;;-1.37;89.52;99279.84;5034455;28;46136;-75
2021/01/18 06:52:46;;;;;;;8.75;4.05;;;;;;;-1.31;89.52;99284.00;5036890;28;45282;-76
2021/01/18 06:55:20;;;;;;;7.63;4.30;;;;;;;-1.29;88.80;99276.97;5036167;28;45353;-75
2021/01/18 06:57:46;;;;;;;11.13;5.95;;;;;;;-1.26;89.09;99276.00;5026888;28;45377;-76
2021/01/18 07:00:16;;;;;;;7.03;5.22;;;;;;;-1.34;89.51;99278.88;5037185;28;45438;-75
2021/01/18 07:02:59;;;;;;;9.57;5.20;;;;;;;-1.30;88.57;99288.31;5035251;28;45298;-76
2021/01/18 07:05:36;;;;;;;10.07;5.15;;;;;;;-1.32;88.93;99293.56;5032076;28;45298;-75
2021/01/18 07:08:13;;;;;;;10.40;5.25;;;;;;;-1.30;88.27;99285.72;5035725;28;45615;-76
2021/01/18 07:10:45;;;;;;;10.30;4.90;;;;;;;-1.30;88.44;99292.66;5036179;28;45325;-76
2021/01/18 07:13:10;;;;;;;8.82;4.93;;;;;;;-1.33;88.70;99297.09;5026871;28;45287;-75
2021/01/18 07:15:38;;;;;;;9.73;4.75;;;;;;;-1.28;88.38;99301.28;5037010;28;45354;-76
2021/01/18 07:18:14;;;;;;;9.88;4.80;;;;;;;-1.32;88.72;99293.56;5037493;28;45298;-75
2021/01/18 07:20:44;;;;;;;10.50;5.70;;;;;;;-1.35;88.48;99298.03;5035813;28;45416;-76
2021/01/18 07:23:13;;;;;;;8.75;5.00;;;;;;;-1.32;88.96;99297.97;5037145;28;45397;-75
2021/01/18 07:25:43;;;;;;;9.52;5.50;;;;;;;-1.30;88.44;99297.88;5037415;28;45417;-76
2021/01/18 07:28:13;;;;;;;10.55;5.30;;;;;;;-1.29;89.05;99302.19;5037116;28;45462;-75
2021/01/18 07:30:39;;;;;;;13.25;9.13;;;;;;;-1.27;88.95;99310.84;5036874;28;46284;-75
2021/01/18 07:33:09;;;;;;;12.90;6.65;;;;;;;-1.24;89.49;99314.19;5037269;28;45408;-75
2021/01/18 07:35:37;;;;;;;12.55;6.60;;;;;;;-1.24;89.33;99318.56;5036793;28;45457;-75
2021/01/18 07:38:18;;;;;;;16.02;9.00;;;;;;;-1.27;89.11;99316.91;5037223;28;45560;-75
2021/01/18 07:41:12;;;;;;;13.65;6.75;;;;;;;-1.29;88.97;99317.88;5036968;28;45935;-76
2021/01/18 07:43:45;;;;;;;7.93;4.03;;;;;;;-1.33;87.84;99314.50;5036903;28;45343;-75
2021/01/18 07:46:29;;;;;;;7.78;4.68;;;;;;;-1.37;88.32;99313.78;5037159;28;45444;-75
2021/01/18 07:48:56;;;;;;;7.43;4.57;;;;;;;-1.39;88.29;99323.41;5038102;28;45401;-75
2021/01/18 07:51:23;;;;;;;8.60;4.97;;;;;;;-1.38;87.69;99313.81;5039832;28;48014;-75
2021/01/18 07:53:49;;;;;;;8.38;4.78;;;;;;;-1.44;88.72;99327.06;5040008;28;45340;-76
2021/01/18 07:56:27;;;;;;;9.07;4.88;;;;;;;-1.46;87.61;99324.53;5023852;28;45279;-75
2021/01/18 07:59:01;;;;;;;8.00;4.82;;;;;;;-1.53;87.74;99326.50;5038322;28;45629;-75
2021/01/18 08:01:36;;;;;;;8.23;5.10;;;;;;;-1.53;87.55;99315.22;5040053;28;45416;-75
2021/01/18 08:04:25;;;;;;;7.15;4.10;;;;;;;-1.48;86.75;99318.53;5034872;28;45550;-76
2021/01/18 08:07:09;;;;;;;8.90;4.38;;;;;;;-1.48;86.96;99315.91;5037057;28;45480;-75
2021/01/18 08:09:35;;;;;;;7.63;4.20;;;;;;;-1.48;86.25;99308.91;5038522;28;45321;-75
2021/01/18 08:12:30;;;;;;;7.95;4.28;;;;;;;-1.43;86.00;99315.72;5037013;28;45491;-75
2021/01/18 08:14:56;;;;;;;7.95;4.35;;;;;;;-1.40;85.90;99310.41;5038229;28;45285;-76
2021/01/18 08:17:21;;;;;;;7.13;4.22;;;;;;;-1.40;87.02;99313.88;5040197;28;45330;-75
2021/01/18 08:20:06;;;;;;;8.93;4.55;;;;;;;-1.38;87.04;99317.28;5039944;28;45243;-75
2021/01/18 08:22:32;;;;;;;14.15;7.97;;;;;;;-1.37;86.20;99324.22;5036512;28;45309;-75
2021/01/18 08:24:58;;;;;;;12.80;6.65;;;;;;;-1.42;88.09;99320.03;5039931;28;45286;-76
2021/01/18 08:27:46;;;;;;;9.75;5.07;;;;;;;-1.32;87.05;99326.69;5040017;28;45543;-75
2021/01/18 08:30:17;;;;;;;9.68;4.20;;;;;;;-1.24;86.20;99321.16;5040020;28;45375;-75
2021/01/18 08:32:54;;;;;;;9.18;4.93;;;;;;;-1.25;86.45;99325.53;5039821;28;45244;-76
2021/01/18 08:35:30;;;;;;;7.47;4.00;;;;;;;-1.21;86.57;99328.88;5039539;28;45245;-76
2021/01/18 08:38:07;;;;;;;7.72;4.03;;;;;;;-1.25;86.06;99332.50;5038753;28;45416;-76
2021/01/18 08:40:45;;;;;;;13.63;7.32;;;;;;;-1.31;86.57;99328.38;5039660;28;45327;-75
2021/01/18 08:43:15;;;;;;;12.73;6.63;;;;;;;-1.44;86.16;99329.69;5039605;28;45395;-75
2021/01/18 08:45:55;;;;;;;15.63;8.23;;;;;;;-1.50;86.42;99336.81;5039369;28;45338;-75
2021/01/18 08:48:22;;;;;;;9.68;5.65;;;;;;;-1.54;86.61;99340.44;5039681;28;45309;-75
2021/01/18 08:50:52;;;;;;;10.52;6.40;;;;;;;-1.61;86.33;99338.97;5036393;28;45220;-75
2021/01/18 08:53:41;;;;;;;11.52;6.40;;;;;;;-1.58;87.00;99344.06;5036035;28;45469;-75
2021/01/18 08:56:27;;;;;;;12.10;5.93;;;;;;;-1.65;87.85;99340.84;5030755;28;45440;-75
2021/01/18 08:58:52;;;;;;;10.48;5.80;;;;;;;-1.69;86.84;99343.59;5037098;28;45274;-75
2021/01/18 09:01:30;;;;;;;10.63;5.72;;;;;;;-1.74;87.29;99338.53;5039056;28;45428;-76
2021/01/18 09:03:59;;;;;;;12.43;7.00;;;;;;;-1.72;86.60;99338.47;5031999;28;46007;-76
2021/01/18 09:06:26;;;;;;;11.88;6.15;;;;;;;-1.76;87.23;99333.34;5032080;28;45480;-76
2021/01/18 09:09:04;;;;;;;9.73;5.88;;;;;;;-1.81;86.46;99337.88;5038954;28;45465;-76
2021/01/18 09:11:31;;;;;;;10.13;6.00;;;;;;;-1.64;86.20;99339.06;5035382;28;45183;-76
2021/01/18 09:13:57;;;;;;;7.88;4.82;;;;;;;-1.60;85.78;99335.44;5035473;28;45492;-76
2021/01/18 09:16:22;;;;;;;10.15;6.05;;;;;;;-1.57;85.99;99340.56;5038669;28;45366;-77
2021/01/18 09:18:48;;;;;;;10.45;5.30;;;;;;;-1.54;86.47;99348.28;5038452;28;45329;-77
2021/01/18 09:21:16;;;;;;;7.50;4.00;;;;;;;-1.41;85.19;99347.84;5038794;28;45621;-78
2021/01/18 09:23:42;;;;;;;8.93;5.15;;;;;;;-1.37;85.19;99349.44;5038977;28;45317;-78
2021/01/18 09:26:12;;;;;;;9.73;5.22;;;;;;;-1.32;85.01;99344.94;5038639;28;45737;-78
2021/01/18 09:28:50;;;;;;;7.95;4.85;;;;;;;-1.32;85.02;99356.22;5036934;28;45409;-77
2021/01/18 09:31:16;;;;;;;9.85;4.97;;;;;;;-1.38;85.23;99351.22;5038916;28;45390;-76
2021/01/18 09:33:42;;;;;;;10.05;5.13;;;;;;;-1.39;85.13;99349.50;5038605;28;45243;-76
2021/01/18 09:36:17;;;;;;;8.23;5.22;;;;;;;-1.36;84.54;99354.63;5038462;28;45148;-77
2021/01/18 09:38:44;;;;;;;9.57;5.00;;;;;;;-1.28;84.26;99353.50;5026201;28;45232;-76
2021/01/18 09:41:10;;;;;;;8.45;4.75;;;;;;;-1.24;84.18;99355.97;5038829;28;45338;-77
2021/01/18 09:43:36;;;;;;;8.48;3.65;;;;;;;-1.19;82.19;99350.56;5038667;28;45260;-77
2021/01/18 09:46:02;;;;;;;8.57;4.88;;;;;;;-1.17;84.19;99364.41;5037120;28;45474;-75
2021/01/18 09:48:28;;;;;;;8.68;4.32;;;;;;;-1.16;83.11;99358.28;5037081;28;45517;-78
2021/01/18 09:51:07;;;;;;;7.07;3.53;;;;;;;-1.15;82.37;99361.75;5037946;28;45313;-75
2021/01/18 09:53:34;;;;;;;8.43;3.75;;;;;;;-1.11;82.25;99364.19;5037138;28;47682;-77
2021/01/18 09:56:14;;;;;;;7.60;4.15;;;;;;;-1.07;82.66;99363.19;5033079;28;45362;-77
2021/01/18 09:58:51;;;;;;;8.23;4.30;;;;;;;-1.04;82.49;99364.84;5038649;28;45442;-76
2021/01/18 10:01:24;;;;;;;9.32;4.93;;;;;;;-1.04;83.21;99375.28;5038287;28;45286;-76
2021/01/18 10:03:56;;;;;;;9.55;5.30;;;;;;;-1.02;83.90;99365.63;5036330;28;47674;-77
2021/01/18 10:06:28;;;;;;;12.25;6.47;;;;;;;-1.01;83.82;99363.84;5035896;28;45548;-77
2021/01/18 10:09:12;;;;;;;13.18;6.13;;;;;;;-0.94;84.38;99365.34;5038580;28;45291;-77
2021/01/18 10:11:46;;;;;;;12.32;6.50;;;;;;;-0.95;83.56;99367.13;5032609;28;45547;-75
2021/01/18 10:14:22;;;;;;;14.55;7.45;;;;;;;-0.94;83.05;99370.56;5033765;28;45223;-75
2021/01/18 10:17:07;;;;;;;17.75;8.88;;;;;;;-0.95;82.63;99363.63;5038054;28;45424;-75
2021/01/18 10:19:38;;;;;;;19.80;9.45;;;;;;;-0.93;82.62;99370.53;5038034;28;45272;-75
2021/01/18 10:22:13;;;;;;;13.52;7.80;;;;;;;-0.82;82.42;99370.16;5038332;28;45401;-76
2021/01/18 10:24:38;;;;;;;11.27;5.95;;;;;;;-0.76;82.09;99366.44;5037982;28;45488;-77
2021/01/18 10:27:10;;;;;;;9.90;4.90;;;;;;;-0.36;81.08;99358.84;5037733;28;45428;-75
2021/01/18 10:29:38;;;;;;;10.20;4.60;;;;;;;0.26;78.80;99366.88;5038256;28;45359;-76
2021/01/18 10:32:04;;;;;;;11.10;5.63;;;;;;;0.47;77.05;99370.34;5037860;28;45395;-76
2021/01/18 10:34:35;;;;;;;11.48;5.80;;;;;;;0.36;77.58;99375.16;5037773;28;45416;-76
2021/01/18 10:37:17;;;;;;;10.07;5.43;;;;;;;0.39;79.07;99375.03;5035937;28;45485;-74
2021/01/18 10:39:46;;;;;;;13.77;6.80;;;;;;;0.54;78.80;99389.25;5037992;28;45299;-73
2021/01/18 10:42:15;;;;;;;16.15;6.63;;;;;;;0.96;77.76;99377.88;5037644;28;45211;-73
2021/01/18 10:44:54;;;;;;;15.38;7.45;;;;;;;1.42;76.88;99374.97;5036286;28;47368;-73
2021/01/18 10:47:23;;;;;;;16.27;8.60;;;;;;;2.29;75.10;99384.00;5037525;28;45358;-73
2021/01/18 10:49:59;;;;;;;15.63;8.05;;;;;;;6.38;61.37;99392.41;5037681;28;45385;-74
2021/01/18 10:52:41;;;;;;;15.73;8.20;;;;;;;5.54;61.58;99366.03;5037835;28;45334;-73
2021/01/18 10:55:11;;;;;;;16.35;8.48;;;;;;;5.93;59.37;99371.50;5027218;28;45984;-73
2021/01/18 10:57:41;;;;;;;14.13;7.97;;;;;;;7.68;56.52;99380.06;5032744;28;45401;-74
2021/01/18 11:00:12;;;;;;;16.47;8.40;;;;;;;7.43;54.49;99384.44;5037762;28;45230;-73
2021/01/18 11:02:40;;;;;;;14.35;8.02;;;;;;;10.93;45.07;99363.78;5036550;28;45760;-74
2021/01/18 11:05:10;;;;;;;14.10;7.55;;;;;;;8.06;51.45;99357.88;5034499;28;45238;-72
2021/01/18 11:07:45;;;;;;;15.40;8.27;;;;;;;7.69;51.26;99361.41;5036845;28;45329;-73
2021/01/18 11:10:11;;;;;;;15.00;8.23;;;;;;;6.52;56.33;99359.75;5037376;28;45299;-74
2021/01/18 11:12:38;;;;;;;14.15;8.30;;;;;;;4.00;65.13;99355.78;5035352;28;45433;-73
2021/01/18 11:15:06;;;;;;;14.23;7.90;;;;;;;3.19;69.22;99357.56;5037264;28;45521;-74
2021/01/18 11:17:32;;;;;;;15.45;8.75;;;;;;;5.00;63.30;99353.53;5036854;28;45461;-73
2021/01/18 11:19:57;;;;;;;14.50;8.35;;;;;;;6.79;56.76;99351.75;5037161;28;45436;-74
2021/01/18 11:22:23;;;;;;;16.45;8.93;;;;;;;7.63;53.03;99348.59;5035809;28;45291;-73
2021/01/18 11:24:49;;;;;;;18.63;9.85;;;;;;;7.46;54.06;99333.94;5036997;28;45421;-73
2021/01/18 11:27:15;;;;;;;15.77;9.75;;;;;;;6.06;60.10;99334.59;5036866;28;45424;-76
2021/01/18 11:29:41;;;;;;;15.77;9.05;;;;;;;5.57;61.86;99333.31;5036647;28;45470;-74
2021/01/18 11:32:07;;;;;;;18.88;10.32;;;;;;;5.38;61.93;99318.63;5036983;28;45199;-73
2021/01/18 11:34:36;;;;;;;15.75;9.75;;;;;;;6.21;61.12;99320.41;5036119;28;46296;-73
2021/01/18 11:37:08;;;;;;;15.55;9.13;;;;;;;8.05;54.98;99321.75;5032602;28;45181;-73
2021/01/18 11:39:34;;;;;;;17.40;10.02;;;;;;;8.62;52.39;99316.69;5037201;28;45331;-73
2021/01/18 11:42:00;;;;;;;17.05;10.15;;;;;;;7.66;55.77;99311.31;5037064;28;45523;-73
2021/01/18 11:44:26;;;;;;;17.70;9.68;;;;;;;7.05;57.30;99303.31;5036750;28;45374;-72